»·PEaware :: N80991 KWHP-KSNA

N80991 :: KWHP-KSNA

FLIGHT INFORMATION

Flight Status: Arrived
Operator: Privately registered:
United States
More flights under this callsign
Pilot: David D. (37029)
Aircraft: CESSNA 172 SKYHAWK
(C172)
More flights by this aircraft type
Origin: KWHP Whiteman
United States
Destination: KSNA John Wayne-Orange Co
United States
More flights between these airports :: More routes between these airports
Route: WHP1 VNY V186 BAYJY V363 POXKU V8 SLI
File this flight plan on PilotEdge
Remarks:
Altitude:
(Current/Filed)
5,000ft
Speed:
(Current/Filed)
110kts
Departed: 21-Aug-23 10:45 AM
Arrived: 21-Aug-23 11:29 AM
Distance/Time
Traveled:
44nm/0:44
Distance/Time
To Go:
Arrived

Flight Plot

Page will automatically refresh every two minutes.

Flight plan parsing failed; only flown route is shown


Map Options




Map Legend


Flown Route
Filed Route
Departure Airport
Arrival Airport
Navaid (VOR, NDB)
Fix

Horizontal Profiles

Position Reports

Time Latitude Longitude Heading Altitude Ground
Speed
21-Aug-23 10:26 34.259984 -118.412066 318 995ft 0kts
21-Aug-23 10:27 34.259984 -118.412066 318 995ft 0kts
21-Aug-23 10:28 34.259984 -118.412066 318 995ft 0kts
21-Aug-23 10:29 34.259984 -118.412066 318 995ft 0kts
21-Aug-23 10:30 34.259984 -118.412066 318 995ft 0kts
21-Aug-23 10:31 34.259984 -118.412066 318 995ft 0kts
21-Aug-23 10:32 34.259984 -118.412066 318 995ft 0kts
21-Aug-23 10:33 34.259984 -118.412066 318 995ft 0kts
21-Aug-23 10:34 34.259984 -118.412066 318 995ft 0kts
21-Aug-23 10:35 34.259984 -118.412066 318 995ft 0kts
21-Aug-23 10:36 34.259984 -118.412066 318 995ft 0kts
21-Aug-23 10:37 34.259984 -118.412066 318 995ft 0kts
21-Aug-23 10:38 34.259984 -118.412066 318 995ft 0kts
21-Aug-23 10:39 34.259487 -118.412868 181 993ft 9kts
21-Aug-23 10:40 34.256941 -118.410311 139 979ft 12kts
21-Aug-23 10:41 34.255702 -118.408998 138 967ft 0kts
21-Aug-23 10:42 34.255702 -118.408998 138 967ft 0kts
21-Aug-23 10:43 34.255702 -118.408998 138 967ft 0kts
21-Aug-23 10:44 34.258019 -118.412128 318 984ft 71kts
21-Aug-23 10:45 34.269206 -118.433449 273 1851ft 81kts
21-Aug-23 10:46 34.272143 -118.460546 272 2711ft 85kts
21-Aug-23 10:47 34.275399 -118.489245 274 3513ft 88kts
21-Aug-23 10:48 34.284636 -118.515964 344 4217ft 97kts
21-Aug-23 10:49 34.311589 -118.525837 343 4797ft 111kts
21-Aug-23 10:50 34.312639 -118.557246 200 4908ft 112kts
21-Aug-23 10:51 34.286816 -118.544568 141 4911ft 104kts
21-Aug-23 10:52 34.264185 -118.522870 143 4913ft 104kts
21-Aug-23 10:53 34.240806 -118.502744 146 4914ft 102kts
21-Aug-23 10:54 34.216971 -118.484608 121 4911ft 103kts
21-Aug-23 10:55 34.209701 -118.450695 107 4918ft 105kts
21-Aug-23 10:56 34.201617 -118.417034 112 4920ft 104kts
21-Aug-23 10:57 34.191201 -118.384458 117 4923ft 103kts
21-Aug-23 10:58 34.179662 -118.352619 115 4925ft 103kts
21-Aug-23 10:59 34.169260 -118.319994 114 4927ft 104kts
21-Aug-23 11:00 34.159023 -118.287359 111 4927ft 103kts
21-Aug-23 11:01 34.149349 -118.254688 111 4926ft 103kts
21-Aug-23 11:02 34.139256 -118.222284 109 4961ft 103kts
21-Aug-23 11:03 34.128832 -118.189498 109 4960ft 105kts
21-Aug-23 11:04 34.117636 -118.156509 109 4959ft 107kts
21-Aug-23 11:05 34.105984 -118.123348 109 4958ft 109kts
21-Aug-23 11:06 34.094840 -118.089144 107 4942ft 111kts
21-Aug-23 11:07 34.083805 -118.054085 104 4939ft 110kts
21-Aug-23 11:08 34.074812 -118.019028 103 4940ft 109kts
21-Aug-23 11:09 34.066108 -117.984101 103 4941ft 108kts
21-Aug-23 11:10 34.057328 -117.949572 105 4942ft 107kts
21-Aug-23 11:11 34.047197 -117.915680 109 4943ft 107kts
21-Aug-23 11:12 34.036381 -117.882118 113 4943ft 107kts
21-Aug-23 11:13 34.014906 -117.855215 132 4694ft 118kts
21-Aug-23 11:14 33.990762 -117.826724 132 3996ft 124kts
21-Aug-23 11:15 33.968066 -117.799403 131 3469ft 112kts
21-Aug-23 11:16 33.946158 -117.772429 131 3010ft 112kts
21-Aug-23 11:17 33.918689 -117.759274 174 2999ft 112kts
21-Aug-23 11:18 33.887511 -117.757176 184 2996ft 112kts
21-Aug-23 11:19 33.856401 -117.761411 193 2993ft 113kts
21-Aug-23 11:20 33.828310 -117.773207 207 2989ft 96kts
21-Aug-23 11:21 33.805215 -117.787080 206 2797ft 96kts
21-Aug-23 11:22 33.781666 -117.801650 208 2300ft 93kts
21-Aug-23 11:23 33.758855 -117.816063 208 1800ft 92kts
21-Aug-23 11:24 33.736387 -117.830354 208 1301ft 88kts
21-Aug-23 11:25 33.715219 -117.843794 208 841ft 83kts
21-Aug-23 11:26 33.696129 -117.855920 207 422ft 75kts
21-Aug-23 11:27 33.678611 -117.867007 208 66ft 64kts
21-Aug-23 11:28 33.674238 -117.870801 293 60ft 0kts
21-Aug-23 11:29 33.674360 -117.870977 335 60ft 6kts
21-Aug-23 11:30 33.675448 -117.871516 214 60ft 0kts
21-Aug-23 11:31 33.675428 -117.871532 214 60ft 0kts

Navigation Log

Ident Type
Flight plan parsing failed, navigation log unavailable